Time;durP1;ratioP1;P1;durP2;ratioP2;P2;SDS_P1;SDS_P2;PMS_P1;PMS_P2;Temp;Humidity;BMP_temperature;BMP_pressure;BME280_temperature;BME280_humidity;BME280_pressure;Samples;Min_cycle;Max_cycle;Signal;HPM_P1;HPM_P2
2023/07/09 04:02:43;;;;;;;3.97;2.57;;;23.80;66.40;;;;;;5040384;23;20505;-74
2023/07/09 04:05:10;;;;;;;2.97;2.10;;;23.90;66.40;;;;;;4994701;28;20445;-74
2023/07/09 04:07:37;;;;;;;3.10;2.17;;;24.00;66.40;;;;;;4994573;28;20449;-75
2023/07/09 04:10:05;;;;;;;2.40;2.03;;;24.00;66.20;;;;;;4994558;28;20445;-75
2023/07/09 04:12:31;;;;;;;3.30;2.23;;;24.00;66.00;;;;;;5012165;28;20538;-74
2023/07/09 04:14:58;;;;;;;2.30;1.43;;;24.10;65.50;;;;;;5014642;28;20444;-74
2023/07/09 04:17:25;;;;;;;2.80;1.70;;;24.20;65.50;;;;;;5014102;28;20448;-75
2023/07/09 04:19:54;;;;;;;3.50;2.40;;;24.30;65.50;;;;;;5013966;28;20484;-74
2023/07/09 04:22:21;;;;;;;3.43;2.20;;;24.20;65.40;;;;;;5013936;28;20468;-74
2023/07/09 04:24:49;;;;;;;3.30;2.30;;;24.20;65.70;;;;;;5013944;28;20448;-75
2023/07/09 04:27:16;;;;;;;3.73;2.37;;;24.20;65.80;;;;;;5013894;28;20459;-74
2023/07/09 04:29:43;;;;;;;3.80;2.50;;;24.20;65.90;;;;;;5013544;28;20871;-74
2023/07/09 04:32:14;;;;;;;2.50;2.10;;;24.20;65.80;;;;;;5013756;28;20515;-73
2023/07/09 04:34:41;;;;;;;3.17;1.87;;;24.30;65.80;;;;;;5013865;28;20432;-74
2023/07/09 04:37:11;;;;;;;3.20;2.60;;;24.30;65.80;;;;;;5013811;28;20492;-75
2023/07/09 04:39:39;;;;;;;3.93;3.10;;;24.50;65.50;;;;;;5013907;28;20460;-75
2023/07/09 04:42:06;;;;;;;2.80;2.50;;;24.50;65.50;;;;;;5013656;28;20471;-74
2023/07/09 04:44:33;;;;;;;3.47;2.77;;;24.40;65.70;;;;;;5013674;28;20448;-74
2023/07/09 04:47:00;;;;;;;3.10;2.50;;;24.40;66.10;;;;;;5013683;28;20495;-75
2023/07/09 04:49:26;;;;;;;2.77;2.40;;;24.50;65.90;;;;;;5013624;28;20441;-74
2023/07/09 04:51:54;;;;;;;3.90;2.80;;;24.70;65.50;;;;;;5013212;28;20472;-74
2023/07/09 04:54:22;;;;;;;3.57;2.33;;;24.90;65.00;;;;;;5013550;28;20453;-74
2023/07/09 04:56:49;;;;;;;3.23;2.40;;;24.80;64.90;;;;;;5013268;28;20960;-74
2023/07/09 04:59:15;;;;;;;2.90;2.17;;;24.80;65.20;;;;;;5013055;28;20539;-74
2023/07/09 05:01:42;;;;;;;2.70;2.10;;;24.90;65.20;;;;;;5013166;28;20480;-74
2023/07/09 05:04:09;;;;;;;3.77;3.07;;;24.90;65.40;;;;;;5013484;28;20451;-74
2023/07/09 05:06:36;;;;;;;2.60;2.20;;;25.00;64.90;;;;;;5013181;28;20941;-74
2023/07/09 05:09:02;;;;;;;2.50;2.27;;;25.10;65.00;;;;;;5013112;28;20934;-74
2023/07/09 05:11:34;;;;;;;2.90;2.43;;;25.00;65.40;;;;;;5013627;28;20472;-73
2023/07/09 05:14:00;;;;;;;3.53;2.40;;;25.00;65.80;;;;;;5013427;28;20483;-74
2023/07/09 05:16:27;;;;;;;3.00;2.70;;;25.00;65.40;;;;;;5013609;28;20448;-74
2023/07/09 05:18:54;;;;;;;2.83;2.37;;;25.20;65.40;;;;;;5013029;28;20538;-75
2023/07/09 05:21:21;;;;;;;2.60;2.40;;;25.40;64.60;;;;;;5013274;28;20538;-75
2023/07/09 05:23:47;;;;;;;3.00;2.33;;;25.50;64.40;;;;;;5013297;28;20494;-75
2023/07/09 05:26:14;;;;;;;3.30;2.10;;;25.60;64.40;;;;;;5013314;28;20523;-75
2023/07/09 05:28:42;;;;;;;3.10;2.40;;;25.70;63.80;;;;;;5013290;28;20498;-74
2023/07/09 05:31:09;;;;;;;2.90;2.13;;;25.80;63.70;;;;;;5013151;28;20514;-75
2023/07/09 05:33:35;;;;;;;3.57;2.10;;;25.90;63.00;;;;;;5013194;28;20456;-74
2023/07/09 05:36:02;;;;;;;3.30;2.83;;;25.80;62.30;;;;;;5013217;28;20502;-75
2023/07/09 05:38:29;;;;;;;2.23;1.80;;;25.80;63.10;;;;;;5013103;28;20544;-75
2023/07/09 05:41:02;;;;;;;2.67;1.80;;;26.00;62.70;;;;;;5013102;28;20518;-75
2023/07/09 05:43:29;;;;;;;3.47;2.30;;;26.20;62.20;;;;;;5013136;28;20444;-74
2023/07/09 05:45:58;;;;;;;3.50;2.47;;;26.30;61.80;;;;;;5013068;28;20460;-75
2023/07/09 05:48:24;;;;;;;2.97;2.03;;;26.40;61.40;;;;;;5013072;28;20440;-75
2023/07/09 05:50:55;;;;;;;4.50;2.00;;;26.60;61.70;;;;;;5012980;28;20468;-75
2023/07/09 05:53:21;;;;;;;2.53;2.10;;;26.70;61.30;;;;;;5013062;28;20520;-75
2023/07/09 05:55:48;;;;;;;2.03;1.63;;;26.90;61.00;;;;;;5013081;28;20452;-75
2023/07/09 05:58:15;;;;;;;3.40;2.30;;;27.10;60.20;;;;;;5012984;28;20448;-75
2023/07/09 06:00:42;;;;;;;2.67;2.30;;;27.30;59.20;;;;;;5012643;28;20495;-75
2023/07/09 06:03:10;;;;;;;2.43;2.10;;;27.50;59.50;;;;;;5013031;28;20517;-75
2023/07/09 06:05:37;;;;;;;2.90;2.10;;;27.80;58.80;;;;;;5012915;28;20451;-75
2023/07/09 06:08:05;;;;;;;2.47;2.00;;;27.90;58.20;;;;;;5012894;28;20452;-75
2023/07/09 06:10:32;;;;;;;3.10;2.10;;;28.10;57.50;;;;;;5013249;28;20444;-74
2023/07/09 06:12:58;;;;;;;3.40;1.83;;;28.30;57.80;;;;;;5016339;28;20448;-74
2023/07/09 06:15:26;;;;;;;2.10;1.57;;;28.40;57.30;;;;;;5016254;28;20448;-74
2023/07/09 06:17:52;;;;;;;2.60;2.03;;;28.50;56.80;;;;;;5015939;28;20817;-75
2023/07/09 06:20:20;;;;;;;2.40;1.90;;;28.50;56.90;;;;;;5015873;28;20514;-75
2023/07/09 06:22:47;;;;;;;2.80;2.30;;;28.70;56.70;;;;;;5016167;28;20452;-75
2023/07/09 06:25:14;;;;;;;2.90;2.40;;;28.80;56.00;;;;;;5015786;28;20881;-74
2023/07/09 06:27:40;;;;;;;2.03;1.50;;;28.70;56.10;;;;;;5015794;28;20444;-74
2023/07/09 06:30:08;;;;;;;2.60;1.97;;;28.90;56.10;;;;;;5016052;28;20476;-74
2023/07/09 06:32:35;;;;;;;2.40;2.03;;;29.10;56.00;;;;;;5015941;28;20477;-73
2023/07/09 06:35:02;;;;;;;2.57;2.00;;;29.40;55.50;;;;;;5015938;28;20503;-74
2023/07/09 06:37:30;;;;;;;2.37;1.83;;;29.60;54.90;;;;;;5016033;28;20949;-75
2023/07/09 06:39:56;;;;;;;2.70;1.77;;;29.70;54.50;;;;;;5015480;28;20480;-75
2023/07/09 06:42:23;;;;;;;3.00;1.80;;;29.90;54.30;;;;;;5015733;28;20464;-74
2023/07/09 06:44:50;;;;;;;2.53;1.77;;;30.20;54.30;;;;;;5015812;28;20448;-75
2023/07/09 06:47:16;;;;;;;2.33;2.10;;;30.40;53.20;;;;;;5015829;28;20449;-75
2023/07/09 06:49:43;;;;;;;2.67;1.87;;;30.40;53.10;;;;;;5015971;28;20448;-74
2023/07/09 06:52:10;;;;;;;2.97;1.87;;;30.30;52.90;;;;;;5015554;28;20479;-74
2023/07/09 06:54:38;;;;;;;2.17;1.63;;;30.50;53.80;;;;;;5015285;28;20996;-74
2023/07/09 06:57:05;;;;;;;2.27;1.93;;;30.70;53.00;;;;;;5015232;28;20843;-74
2023/07/09 06:59:32;;;;;;;3.10;2.30;;;30.80;52.50;;;;;;5015422;28;20490;-74
2023/07/09 07:01:58;;;;;;;4.00;2.00;;;31.10;53.30;;;;;;5014921;28;20485;-74
2023/07/09 07:04:27;;;;;;;2.60;2.00;;;31.10;52.30;;;;;;5015365;28;20534;-74
2023/07/09 07:06:55;;;;;;;2.87;2.03;;;30.90;53.00;;;;;;5015310;28;20531;-74
2023/07/09 07:09:22;;;;;;;2.60;2.00;;;31.00;52.30;;;;;;5015267;28;20448;-74
2023/07/09 07:11:50;;;;;;;2.90;2.30;;;31.10;52.00;;;;;;5015340;28;20503;-74
2023/07/09 07:14:17;;;;;;;2.70;2.30;;;31.40;53.30;;;;;;5015220;28;20448;-74
2023/07/09 07:16:44;;;;;;;2.13;1.73;;;31.40;50.70;;;;;;5015201;28;20456;-74
2023/07/09 07:19:11;;;;;;;2.93;1.97;;;31.50;51.00;;;;;;5014776;28;20901;-73
2023/07/09 07:21:37;;;;;;;2.30;2.00;;;31.00;51.80;;;;;;5014560;28;20497;-73
2023/07/09 07:24:04;;;;;;;2.60;2.10;;;30.80;52.30;;;;;;5014971;28;20444;-74
2023/07/09 07:26:31;;;;;;;2.20;1.70;;;30.80;52.70;;;;;;5014659;28;20472;-73
2023/07/09 07:28:59;;;;;;;2.50;2.03;;;30.70;52.80;;;;;;5014638;28;20453;-75
2023/07/09 07:31:26;;;;;;;2.90;2.10;;;30.70;51.40;;;;;;5014806;28;20468;-74
2023/07/09 07:33:52;;;;;;;2.83;1.97;;;31.00;51.70;;;;;;5014843;28;20445;-75
2023/07/09 07:36:19;;;;;;;2.43;1.70;;;31.20;49.90;;;;;;5014824;28;20966;-74
2023/07/09 07:38:46;;;;;;;2.30;1.93;;;31.30;48.90;;;;;;5014547;28;20941;-77
2023/07/09 07:41:12;;;;;;;3.40;2.13;;;31.40;49.40;;;;;;5014565;28;20834;-77
2023/07/09 07:43:39;;;;;;;2.50;1.90;;;31.50;49.50;;;;;;5014378;28;20937;-76
2023/07/09 07:46:08;;;;;;;2.67;1.60;;;31.90;49.90;;;;;;5014604;28;20448;-77
2023/07/09 07:48:35;;;;;;;2.83;2.07;;;32.10;48.60;;;;;;5014729;28;20448;-77
2023/07/09 07:51:03;;;;;;;3.30;2.20;;;32.40;46.70;;;;;;5014548;28;20467;-77
2023/07/09 07:53:30;;;;;;;2.97;2.10;;;32.50;48.80;;;;;;5014568;28;20460;-77
2023/07/09 07:55:57;;;;;;;2.90;2.10;;;32.20;50.10;;;;;;5014477;28;20539;-77
2023/07/09 07:58:23;;;;;;;2.70;2.13;;;31.90;49.60;;;;;;5014716;28;20448;-77
2023/07/09 08:00:50;;;;;;;2.33;1.90;;;31.80;49.80;;;;;;5014166;28;20993;-77
2023/07/09 08:03:18;;;;;;;3.67;2.40;;;31.70;50.80;;;;;;5014358;28;20447;-76
2023/07/09 08:05:49;;;;;;;2.57;2.20;;;31.80;50.40;;;;;;5014197;28;20452;-76
2023/07/09 08:08:16;;;;;;;2.80;1.90;;;32.00;49.40;;;;;;5014381;28;20833;-77
2023/07/09 08:10:42;;;;;;;3.10;2.20;;;31.70;50.20;;;;;;5014197;28;20514;-77
2023/07/09 08:13:09;;;;;;;2.97;2.30;;;31.80;50.60;;;;;;5014406;28;20456;-76
2023/07/09 08:15:36;;;;;;;3.40;1.77;;;31.80;49.40;;;;;;5014289;28;20444;-77
2023/07/09 08:18:03;;;;;;;2.77;2.43;;;31.60;48.90;;;;;;5014143;28;20452;-77
2023/07/09 08:20:33;;;;;;;3.60;1.73;;;31.70;50.50;;;;;;5014041;28;20538;-77
2023/07/09 08:23:00;;;;;;;2.43;1.90;;;31.90;49.90;;;;;;5014019;28;20821;-77
2023/07/09 08:25:26;;;;;;;3.13;1.97;;;31.80;49.80;;;;;;5014252;28;20523;-76
2023/07/09 08:27:53;;;;;;;2.30;1.90;;;31.60;49.70;;;;;;5013915;28;20499;-76
2023/07/09 08:30:20;;;;;;;2.30;2.00;;;31.70;50.10;;;;;;5014408;28;20452;-76
2023/07/09 08:32:47;;;;;;;2.93;2.10;;;31.70;51.00;;;;;;5013622;28;20552;-77
2023/07/09 08:35:15;;;;;;;2.50;2.10;;;31.60;50.30;;;;;;5013156;28;21053;-76
2023/07/09 08:37:43;;;;;;;2.30;2.00;;;31.60;51.30;;;;;;5013733;28;20456;-77
2023/07/09 08:40:14;;;;;;;3.13;2.10;;;32.00;50.40;;;;;;5013659;28;20488;-76
2023/07/09 08:42:45;;;;;;;2.43;1.87;;;31.90;49.10;;;;;;5013651;28;20526;-76
2023/07/09 08:45:30;;;;;;;3.07;1.97;;;31.90;49.10;;;;;;5013718;28;20448;-76
2023/07/09 08:48:04;;;;;;;2.10;1.50;;;32.10;49.50;;;;;;5013796;28;20432;-76
2023/07/09 08:50:37;;;;;;;2.53;1.77;;;32.10;49.00;;;;;;5013613;28;20440;-77
2023/07/09 08:53:08;;;;;;;2.80;2.40;;;32.00;50.10;;;;;;5013658;28;20451;-77
2023/07/09 08:55:40;;;;;;;2.40;1.83;;;32.00;48.70;;;;;;5013673;28;20502;-77
2023/07/09 08:58:12;;;;;;;2.83;1.57;;;32.00;49.80;;;;;;5013616;28;20495;-77
2023/07/09 09:00:46;;;;;;;2.87;2.40;;;32.10;49.30;;;;;;5013294;28;20468;-77
2023/07/09 09:03:17;;;;;;;2.87;1.70;;;31.90;48.40;;;;;;5013609;28;20436;-76
2023/07/09 09:05:49;;;;;;;3.33;2.20;;;32.00;47.10;;;;;;5013537;28;20490;-77
2023/07/09 09:08:27;;;;;;;3.27;2.20;;;32.10;49.20;;;;;;5013416;28;20483;-77
2023/07/09 09:10:59;;;;;;;2.83;2.27;;;32.30;48.50;;;;;;5013465;28;20469;-77
2023/07/09 09:13:30;;;;;;;7.13;2.50;;;32.50;49.80;;;;;;5013426;28;20487;-76
2023/07/09 09:16:00;;;;;;;2.23;2.03;;;32.60;48.30;;;;;;5013409;28;20436;-76
2023/07/09 09:18:31;;;;;;;3.10;2.07;;;32.70;48.20;;;;;;5013375;28;20531;-77
2023/07/09 09:21:06;;;;;;;2.97;2.20;;;33.00;48.00;;;;;;5013212;28;20487;-77
2023/07/09 09:23:40;;;;;;;2.30;1.70;;;32.90;47.30;;;;;;5013318;28;20486;-77
2023/07/09 09:26:16;;;;;;;2.20;1.67;;;33.00;44.80;;;;;;5013312;28;20487;-76
2023/07/09 09:28:43;;;;;;;2.40;1.83;;;32.80;46.10;;;;;;5013307;28;20429;-76
2023/07/09 09:31:12;;;;;;;2.20;1.70;;;33.00;44.70;;;;;;5013163;28;20472;-77
2023/07/09 09:33:43;;;;;;;2.63;1.83;;;32.90;43.80;;;;;;5013184;28;20864;-77
2023/07/09 09:36:16;;;;;;;2.60;1.70;;;32.60;44.20;;;;;;5013240;28;20456;-76
2023/07/09 09:38:44;;;;;;;2.80;1.63;;;32.70;43.10;;;;;;5013224;28;20432;-76
2023/07/09 09:41:16;;;;;;;3.07;1.90;;;32.80;44.20;;;;;;5013323;28;20535;-77
2023/07/09 09:43:45;;;;;;;4.07;2.13;;;33.00;44.10;;;;;;5013174;28;20456;-76
2023/07/09 09:46:18;;;;;;;2.43;1.73;;;33.10;43.50;;;;;;5016107;28;20778;-77
2023/07/09 09:48:47;;;;;;;2.77;2.13;;;33.40;44.40;;;;;;5016875;28;20428;-76
2023/07/09 09:51:14;;;;;;;2.10;1.50;;;33.70;43.80;;;;;;5016767;28;20522;-77
2023/07/09 09:53:45;;;;;;;2.20;1.60;;;33.80;43.30;;;;;;5016692;28;20447;-77
2023/07/09 09:56:15;;;;;;;2.33;1.97;;;33.80;41.90;;;;;;5016786;28;20519;-76
2023/07/09 09:58:43;;;;;;;2.20;1.50;;;33.80;43.30;;;;;;5016369;28;20960;-76
2023/07/09 10:01:16;;;;;;;2.00;1.53;;;33.80;44.00;;;;;;5016202;28;20502;-77
2023/07/09 10:03:44;;;;;;;2.20;1.70;;;33.80;43.10;;;;;;5016568;28;20515;-77
2023/07/09 10:06:16;;;;;;;2.60;1.83;;;33.70;43.30;;;;;;5016524;28;20460;-76
2023/07/09 10:08:54;;;;;;;2.53;1.90;;;33.90;43.10;;;;;;5016467;28;20424;-76
2023/07/09 10:11:33;;;;;;;2.53;1.90;;;34.10;43.10;;;;;;5016369;28;20529;-76
2023/07/09 10:16:43;;;;;;;2.50;2.00;;;34.60;41.10;;;;;;4996357;28;20453;-75
2023/07/09 10:19:18;;;;;;;2.40;1.70;;;34.70;41.40;;;;;;4997272;28;20488;-75
2023/07/09 10:21:52;;;;;;;2.10;1.57;;;34.50;41.40;;;;;;4997102;28;20475;-75
2023/07/09 10:24:38;;;;;;;1.80;1.40;;;34.60;40.90;;;;;;4997059;28;20429;-75
2023/07/09 10:27:10;;;;;;;2.30;1.70;;;34.10;40.40;;;;;;4996884;28;20445;-75
2023/07/09 10:29:50;;;;;;;2.90;2.00;;;34.10;40.80;;;;;;4996854;28;20941;-75
2023/07/09 10:32:27;;;;;;;2.23;1.60;;;34.50;41.50;;;;;;4996582;28;20929;-75
2023/07/09 10:34:59;;;;;;;2.83;1.83;;;34.50;40.70;;;;;;4997572;28;20519;-74
2023/07/09 10:37:52;;;;;;;2.80;1.67;;;34.40;40.60;;;;;;4996808;28;20464;-74
2023/07/09 10:40:34;;;;;;;2.20;1.57;;;34.30;41.00;;;;;;4996790;28;20468;-74
2023/07/09 10:43:03;;;;;;;2.47;1.73;;;34.30;40.40;;;;;;4996821;28;20860;-74
2023/07/09 10:45:32;;;;;;;2.33;2.00;;;34.30;40.90;;;;;;4996686;28;20461;-74
2023/07/09 10:48:02;;;;;;;3.77;2.60;;;34.70;40.40;;;;;;4996255;28;20444;-75
2023/07/09 10:50:32;;;;;;;2.50;1.93;;;34.90;40.60;;;;;;4996481;28;20444;-74
2023/07/09 10:53:05;;;;;;;2.53;1.80;;;34.90;40.00;;;;;;4996542;28;20433;-75
2023/07/09 10:55:41;;;;;;;2.20;1.40;;;35.00;39.80;;;;;;4996207;28;20869;-75
2023/07/09 10:58:25;;;;;;;2.37;1.83;;;35.10;38.90;;;;;;4995886;28;20439;-75
2023/07/09 11:00:53;;;;;;;2.40;1.90;;;35.30;38.60;;;;;;4996858;28;21039;-74
2023/07/09 11:03:22;;;;;;;2.73;1.30;;;35.20;38.30;;;;;;4995930;28;20949;-74
2023/07/09 11:05:51;;;;;;;2.77;1.73;;;35.10;38.50;;;;;;4995718;28;20480;-75
2023/07/09 11:08:23;;;;;;;3.03;1.80;;;34.80;38.00;;;;;;4995343;28;20483;-74
2023/07/09 11:10:55;;;;;;;2.73;1.60;;;34.80;38.10;;;;;;4995444;28;20433;-74
2023/07/09 11:13:26;;;;;;;4.63;2.60;;;34.90;38.80;;;;;;4995496;28;20445;-74
2023/07/09 11:15:56;;;;;;;2.53;1.50;;;35.10;38.00;;;;;;4995002;28;20480;-74
2023/07/09 11:18:26;;;;;;;2.47;1.70;;;35.00;37.50;;;;;;4995199;28;20519;-74
2023/07/09 11:20:59;;;;;;;3.20;1.90;;;34.80;38.20;;;;;;4995153;28;20485;-74
2023/07/09 11:23:26;;;;;;;2.00;1.57;;;34.90;37.30;;;;;;4995080;28;20429;-74
2023/07/09 11:26:10;;;;;;;2.37;1.70;;;35.30;37.60;;;;;;4994900;28;20484;-74
2023/07/09 11:28:39;;;;;;;2.90;2.20;;;35.50;37.00;;;;;;4995002;28;20844;-74
2023/07/09 11:31:08;;;;;;;3.03;2.23;;;35.50;37.80;;;;;;4994974;28;20511;-74
2023/07/09 11:33:46;;;;;;;2.30;1.70;;;35.60;37.70;;;;;;4994871;28;20548;-76
2023/07/09 11:36:15;;;;;;;3.17;1.80;;;35.60;37.80;;;;;;4994851;28;20464;-74
2023/07/09 11:38:44;;;;;;;3.60;2.03;;;35.70;36.70;;;;;;4994744;28;20464;-74
2023/07/09 11:41:28;;;;;;;4.47;2.43;;;35.30;37.30;;;;;;4994719;28;20488;-75
2023/07/09 11:44:05;;;;;;;3.77;2.70;;;35.40;36.60;;;;;;4995071;28;20523;-75
2023/07/09 11:46:33;;;;;;;2.30;1.80;;;35.60;37.60;;;;;;4994748;28;20432;-75
2023/07/09 11:49:02;;;;;;;2.93;1.80;;;35.70;37.80;;;;;;4994481;28;21021;-75
2023/07/09 11:51:38;;;;;;;2.90;2.30;;;36.00;37.40;;;;;;4995068;28;20453;-75
2023/07/09 11:54:04;;;;;;;2.57;1.80;;;36.40;35.30;;;;;;4994568;28;20432;-75
2023/07/09 11:56:33;;;;;;;2.93;2.20;;;36.20;35.60;;;;;;4994980;28;20480;-75
2023/07/09 11:59:19;;;;;;;2.23;1.70;;;36.30;36.90;;;;;;4995254;28;20444;-75
2023/07/09 12:01:48;;;;;;;4.37;2.80;;;36.50;37.20;;;;;;4994502;28;20535;-75
2023/07/09 12:04:17;;;;;;;3.13;1.70;;;36.30;37.20;;;;;;4994327;28;20540;-75
2023/07/09 12:06:44;;;;;;;2.63;2.00;;;36.10;36.70;;;;;;4994449;28;20440;-75
2023/07/09 12:09:16;;;;;;;2.50;2.00;;;36.00;36.80;;;;;;4993234;28;20516;-75
2023/07/09 12:11:47;;;;;;;2.40;2.03;;;36.10;35.60;;;;;;4994500;28;20853;-75
2023/07/09 12:14:17;;;;;;;2.93;2.30;;;36.10;37.20;;;;;;4994011;28;20437;-75
2023/07/09 12:16:46;;;;;;;2.33;1.97;;;36.60;36.20;;;;;;4994251;28;20441;-75
2023/07/09 12:19:15;;;;;;;2.60;1.93;;;37.00;34.30;;;;;;4993961;28;20987;-75
2023/07/09 12:21:45;;;;;;;3.93;2.10;;;37.00;35.00;;;;;;4994245;28;20483;-75
2023/07/09 12:24:20;;;;;;;3.38;2.50;;;37.20;34.80;;;;;;4994373;28;20210;-75
2023/07/09 12:26:50;;;;;;;2.78;2.05;;;37.40;34.50;;;;;;4994151;28;20276;-75
2023/07/09 12:29:16;;;;;;;2.70;2.10;;;37.30;34.90;;;;;;4993969;28;20693;-75
2023/07/09 12:31:43;;;;;;;2.50;2.00;;;37.10;35.30;;;;;;4994306;28;20252;-74
2023/07/09 12:34:14;;;;;;;2.70;1.93;;;36.80;36.30;;;;;;4994048;28;20213;-75
2023/07/09 12:36:45;;;;;;;2.43;1.80;;;36.80;35.70;;;;;;4994046;28;20512;-76
2023/07/09 12:39:13;;;;;;;4.40;2.30;;;37.00;36.10;;;;;;4993968;28;20449;-76
2023/07/09 12:41:42;;;;;;;2.60;2.20;;;37.30;35.70;;;;;;4993890;28;20568;-76
2023/07/09 12:44:18;;;;;;;2.40;1.92;;;37.50;35.20;;;;;;4993924;28;20465;-76
2023/07/09 12:46:45;;;;;;;;;;;38.00;35.00;;;;;;4993602;28;25137;-76
2023/07/09 12:49:25;;;;;;;2.13;1.70;;;38.00;33.80;;;;;;4992629;28;20424;-76
2023/07/09 12:51:52;;;;;;;2.10;1.67;;;38.60;34.10;;;;;;4993872;28;20286;-76
2023/07/09 12:54:21;;;;;;;2.37;1.80;;;39.00;32.90;;;;;;4993547;28;20502;-76
2023/07/09 12:56:52;;;;;;;3.50;2.10;;;38.50;33.80;;;;;;4993502;28;20483;-76
2023/07/09 12:59:21;;;;;;;2.13;1.60;;;38.10;33.20;;;;;;4993698;28;20519;-77
2023/07/09 13:01:56;;;;;;;3.47;2.47;;;37.10;33.20;;;;;;4993504;28;20535;-77
2023/07/09 13:04:29;;;;;;;2.73;2.20;;;36.30;34.00;;;;;;4993414;28;20476;-76
2023/07/09 13:06:59;;;;;;;3.13;1.63;;;36.00;34.50;;;;;;4993165;28;20902;-77
2023/07/09 13:09:26;;;;;;;2.50;1.90;;;36.10;32.80;;;;;;4993733;28;20445;-76
2023/07/09 13:11:54;;;;;;;2.70;1.97;;;35.70;32.70;;;;;;4993883;28;20453;-77
2023/07/09 13:14:25;;;;;;;2.70;1.80;;;35.80;34.80;;;;;;4993865;28;20453;-77
2023/07/09 13:16:51;;;;;;;2.67;2.17;;;36.00;33.20;;;;;;4993257;28;20447;-77
2023/07/09 13:19:19;;;;;;;3.10;1.80;;;36.00;33.80;;;;;;4993505;28;20507;-77
2023/07/09 13:21:46;;;;;;;5.07;3.03;;;36.30;33.60;;;;;;4997315;28;20483;-76
2023/07/09 13:24:16;;;;;;;3.30;2.10;;;36.50;33.50;;;;;;4997327;28;20456;-77
2023/07/09 13:26:43;;;;;;;2.20;1.77;;;36.90;33.20;;;;;;4998411;28;20444;-76
2023/07/09 13:29:15;;;;;;;2.53;1.93;;;37.00;32.50;;;;;;4997265;28;20479;-77
2023/07/09 13:31:44;;;;;;;3.70;2.00;;;37.30;32.70;;;;;;4997241;28;20448;-77
2023/07/09 13:34:20;;;;;;;2.83;1.80;;;37.40;32.50;;;;;;4997238;28;20452;-77
2023/07/09 13:36:46;;;;;;;1.90;1.60;;;37.40;32.80;;;;;;4997139;28;20503;-77
2023/07/09 13:39:14;;;;;;;2.77;1.90;;;37.50;31.90;;;;;;4996979;28;20867;-76
2023/07/09 13:41:40;;;;;;;2.60;1.90;;;37.10;32.40;;;;;;4997328;28;20496;-76
2023/07/09 13:44:13;;;;;;;3.40;2.50;;;36.80;33.10;;;;;;4996569;28;20960;-75
2023/07/09 13:46:39;;;;;;;2.30;2.10;;;36.80;33.00;;;;;;4996843;28;20441;-76
2023/07/09 13:49:10;;;;;;;2.30;1.80;;;36.90;33.70;;;;;;4996850;28;20452;-76
2023/07/09 13:51:37;;;;;;;2.30;1.60;;;36.90;32.60;;;;;;4996855;28;20426;-75
2023/07/09 13:54:14;;;;;;;2.30;1.53;;;36.90;32.70;;;;;;4996914;28;20502;-76
2023/07/09 13:56:40;;;;;;;4.03;1.77;;;36.70;33.30;;;;;;4996488;28;20432;-75
2023/07/09 13:59:13;;;;;;;2.67;1.87;;;36.60;34.20;;;;;;4996242;28;20936;-75
2023/07/09 14:01:40;;;;;;;2.70;1.63;;;36.60;34.20;;;;;;4996489;28;20468;-76
2023/07/09 14:04:11;;;;;;;2.33;1.70;;;36.60;33.70;;;;;;4996479;28;20448;-76
2023/07/09 14:06:38;;;;;;;2.47;1.70;;;36.80;33.80;;;;;;4996316;28;20778;-76
2023/07/09 14:09:06;;;;;;;2.10;1.50;;;36.90;33.60;;;;;;4996384;28;20455;-76
2023/07/09 14:11:33;;;;;;;2.43;1.80;;;37.10;33.80;;;;;;4996490;28;20572;-76
2023/07/09 14:13:59;;;;;;;2.40;1.60;;;36.90;32.60;;;;;;4996508;28;20444;-75
2023/07/09 14:16:26;;;;;;;3.10;1.70;;;36.70;32.50;;;;;;4996022;28;20481;-76
2023/07/09 14:18:53;;;;;;;2.20;1.63;;;36.50;32.50;;;;;;4996002;28;20515;-75
2023/07/09 14:21:26;;;;;;;3.13;1.90;;;36.40;33.20;;;;;;4996233;28;20512;-76
2023/07/09 14:23:52;;;;;;;2.00;1.63;;;36.40;33.60;;;;;;4996482;28;20437;-77
2023/07/09 14:26:19;;;;;;;2.90;1.73;;;36.50;33.30;;;;;;4996067;28;20472;-76
2023/07/09 14:28:46;;;;;;;2.13;1.53;;;36.60;33.20;;;;;;4995616;28;20969;-75
2023/07/09 14:31:20;;;;;;;2.67;1.83;;;36.30;34.10;;;;;;4994870;28;20453;-77
2023/07/09 14:33:47;;;;;;;2.60;2.00;;;36.10;34.90;;;;;;4995854;28;20439;-76
2023/07/09 14:36:14;;;;;;;2.33;1.57;;;36.10;34.70;;;;;;4995449;28;21004;-77
2023/07/09 14:38:42;;;;;;;3.30;2.00;;;36.00;35.20;;;;;;4995767;28;20496;-76
2023/07/09 14:41:19;;;;;;;3.20;2.10;;;36.00;35.10;;;;;;4995677;28;20445;-76
2023/07/09 14:43:46;;;;;;;2.80;1.50;;;36.30;34.00;;;;;;4995713;28;20432;-76
2023/07/09 14:46:13;;;;;;;2.27;2.07;;;36.60;33.10;;;;;;4995562;28;20480;-77
2023/07/09 14:48:39;;;;;;;2.60;1.57;;;36.60;34.00;;;;;;4996057;28;20451;-76
2023/07/09 14:51:14;;;;;;;2.87;1.70;;;36.60;34.60;;;;;;4995685;28;20445;-77
2023/07/09 14:53:42;;;;;;;2.93;1.70;;;36.60;35.00;;;;;;4995322;28;20885;-76
2023/07/09 14:56:10;;;;;;;2.37;1.53;;;36.50;35.00;;;;;;4995454;28;20468;-76
2023/07/09 14:58:37;;;;;;;2.00;1.53;;;36.30;35.30;;;;;;4995153;28;20449;-76
2023/07/09 15:01:03;;;;;;;1.80;1.50;;;36.20;34.80;;;;;;4995384;28;20445;-76
2023/07/09 15:03:30;;;;;;;2.27;1.73;;;36.20;34.40;;;;;;4995007;28;20584;-75
2023/07/09 15:05:57;;;;;;;2.10;1.60;;;36.20;34.40;;;;;;4995299;28;20465;-75
2023/07/09 15:08:25;;;;;;;2.00;1.60;;;36.20;34.40;;;;;;4995335;28;20449;-75
2023/07/09 15:10:55;;;;;;;2.10;1.73;;;36.10;34.40;;;;;;4995676;28;20445;-75
2023/07/09 15:13:29;;;;;;;2.73;1.63;;;36.20;34.30;;;;;;4995306;28;20437;-75
2023/07/09 15:15:55;;;;;;;3.20;2.10;;;36.20;33.60;;;;;;4994962;28;20484;-75
2023/07/09 15:18:22;;;;;;;2.23;1.60;;;36.60;33.10;;;;;;4995114;28;20449;-75
2023/07/09 15:20:51;;;;;;;2.50;1.93;;;36.60;34.00;;;;;;4995007;28;20445;-75
2023/07/09 15:23:18;;;;;;;2.60;1.83;;;36.80;33.10;;;;;;4994846;28;20519;-75
2023/07/09 15:25:45;;;;;;;2.90;1.80;;;36.80;34.90;;;;;;4994575;28;20476;-75
2023/07/09 15:28:13;;;;;;;2.27;1.70;;;36.90;32.90;;;;;;4995616;28;20851;-75
2023/07/09 15:30:40;;;;;;;2.10;1.70;;;37.00;32.70;;;;;;4995637;28;20448;-75
2023/07/09 15:33:13;;;;;;;2.23;1.77;;;36.90;32.90;;;;;;4994755;28;20929;-75
2023/07/09 15:35:40;;;;;;;2.90;1.80;;;36.90;32.80;;;;;;4994948;28;20523;-75
2023/07/09 15:38:22;;;;;;;2.80;1.70;;;36.60;33.40;;;;;;4995349;28;20555;-75
2023/07/09 15:40:49;;;;;;;2.43;1.70;;;36.60;32.70;;;;;;4994935;28;20913;-75
2023/07/09 15:43:18;;;;;;;2.23;1.80;;;36.50;32.20;;;;;;4994788;28;20464;-75
2023/07/09 15:45:47;;;;;;;2.17;1.40;;;36.40;32.90;;;;;;4994620;28;21040;-75
2023/07/09 15:48:22;;;;;;;2.40;1.70;;;36.50;34.20;;;;;;4995210;28;20445;-75
2023/07/09 15:50:49;;;;;;;2.17;1.40;;;36.60;34.00;;;;;;4994973;28;20437;-75
2023/07/09 15:53:16;;;;;;;2.17;1.60;;;36.60;34.10;;;;;;4994658;28;20800;-74
2023/07/09 15:55:43;;;;;;;2.37;1.90;;;36.40;32.90;;;;;;4994835;28;20481;-72
2023/07/09 15:58:20;;;;;;;2.33;1.60;;;36.20;33.10;;;;;;4994460;28;20449;-75
2023/07/09 16:00:47;;;;;;;2.00;1.80;;;36.00;33.70;;;;;;4994311;28;20937;-74
2023/07/09 16:03:14;;;;;;;2.70;2.10;;;35.80;33.90;;;;;;4994777;28;20584;-76
2023/07/09 16:05:40;;;;;;;1.90;1.67;;;35.70;34.90;;;;;;4994715;28;21029;-72
2023/07/09 16:08:07;;;;;;;2.13;1.87;;;35.40;34.70;;;;;;4994222;28;20449;-74
2023/07/09 16:10:34;;;;;;;2.43;1.53;;;35.20;35.10;;;;;;4994271;28;20481;-74
2023/07/09 16:13:01;;;;;;;3.40;1.57;;;35.40;35.50;;;;;;4994060;28;20453;-74
2023/07/09 16:15:30;;;;;;;2.30;1.90;;;35.40;35.50;;;;;;5016558;23;20519;-75
2023/07/09 16:17:57;;;;;;;3.10;1.90;;;35.30;35.10;;;;;;4994423;28;20544;-77
2023/07/09 16:20:27;;;;;;;1.93;1.57;;;35.40;35.90;;;;;;4994101;28;20446;-76
2023/07/09 16:22:55;;;;;;;2.60;2.00;;;35.40;35.70;;;;;;4994254;28;20480;-75
2023/07/09 16:25:24;;;;;;;2.50;1.57;;;35.50;36.30;;;;;;5002620;28;20827;-76
2023/07/09 16:27:51;;;;;;;2.60;2.07;;;35.40;35.30;;;;;;5013938;28;20859;-76
2023/07/09 16:30:20;;;;;;;1.97;1.43;;;35.10;36.20;;;;;;5013921;28;20449;-76
2023/07/09 16:32:48;;;;;;;2.83;2.23;;;34.90;36.20;;;;;;5013871;28;20495;-76
2023/07/09 16:35:17;;;;;;;2.10;1.73;;;35.00;36.10;;;;;;5013504;28;20981;-76
2023/07/09 16:37:45;;;;;;;2.53;1.80;;;34.90;35.50;;;;;;5013731;28;20502;-77
2023/07/09 16:40:18;;;;;;;2.70;2.03;;;34.90;36.50;;;;;;5013409;28;20962;-77
2023/07/09 16:42:46;;;;;;;1.97;1.60;;;35.00;36.10;;;;;;5013673;28;20519;-76
2023/07/09 16:45:15;;;;;;;2.20;1.90;;;34.90;36.80;;;;;;5013584;28;20468;-77
2023/07/09 16:47:42;;;;;;;2.67;1.60;;;34.90;36.30;;;;;;5013377;28;20503;-76
2023/07/09 16:50:13;;;;;;;3.13;1.97;;;34.90;37.10;;;;;;5013366;28;20974;-76
2023/07/09 16:52:40;;;;;;;2.07;1.57;;;34.60;37.30;;;;;;5013303;28;20972;-77
2023/07/09 16:55:09;;;;;;;2.07;1.50;;;34.80;37.40;;;;;;5013009;28;20556;-76
2023/07/09 16:57:35;;;;;;;2.57;1.70;;;34.80;36.70;;;;;;5013604;28;20453;-76
2023/07/09 17:00:29;;;;;;;2.67;1.73;;;34.90;36.90;;;;;;5013186;28;20941;-76
2023/07/09 17:02:57;;;;;;;2.20;1.53;;;35.00;37.80;;;;;;5013366;28;20476;-76